This is the latest recevied weather packets stored in our database for station/object KM4FZA. If no packets are shown the sender has not sent any weather packets the latest 10 day(s).
| Time | Temp. | Humidity | Pressure | Rain* | Wind** | Luminosity | Snow |
|---|---|---|---|---|---|---|---|
| 1777846523 | 22.22° C | 23% | 1019.1 hPa | 0 mm | - | - | - |
| 1777845316 | 22.22° C | 23% | 1019.3 hPa | 0 mm | - | - | - |
| 1777844127 | 21.67° C | 23% | 1019.4 hPa | 0 mm | - | - | - |
| 1777842920 | 21.11° C | 25% | 1019.6 hPa | 0 mm | - | - | - |
| 1777836367 | 20° C | 24% | 1021 hPa | 0 mm | - | - | - |
| 1777833318 | 19.44° C | 24% | 1021.5 hPa | 0 mm | - | - | - |
| 1777821932 | 16.67° C | 33% | 1023.4 hPa | 0 mm | - | - | - |
| 1777821340 | 15.56° C | 33% | 1023.4 hPa | 0 mm | - | - | - |
| 1777820725 | 15° C | 35% | 1023.5 hPa | 0 mm | - | - | - |
| 1777815361 | 13.33° C | 45% | 1023 hPa | 0 mm | - | - | - |
| 1777812925 | 12.22° C | 52% | 1022.9 hPa | 0 mm | - | - | - |
| 1777807520 | 4.44° C | 86% | 1022.4 hPa | 0 mm | - | - | - |
| 1777802722 | 2.78° C | 93% | 1021 hPa | 0 mm | - | - | - |
| 1777800320 | 3.33° C | 89% | 1020.6 hPa | 0 mm | - | - | - |
| 1777799720 | 3.89° C | 88% | 1020.6 hPa | 0 mm | - | - | - |
| 1777797318 | 5.56° C | 81% | 1020.3 hPa | 0 mm | - | - | - |
| 1777796717 | 6.11° C | 72% | 1020.2 hPa | 0 mm | - | - | - |
| 1777793721 | 4.44° C | 88% | 1019.6 hPa | 0 mm | - | - | - |
| 1777790730 | 3.33° C | 99% | 1019 hPa | 0 mm | - | - | - |
| 1777783524 | 5° C | 97% | 1018.7 hPa | 0 mm | - | - | - |
| 1777781723 | 5° C | 95% | 1018.5 hPa | 0 mm | - | - | - |
| 1777779921 | 5.56° C | 93% | 1018.3 hPa | 0 mm | - | - | - |
| 1777778732 | 6.11° C | 92% | 1018.2 hPa | 0 mm | - | - | - |
| 1777773922 | 6.11° C | 89% | 1017.5 hPa | 0 mm | - | - | - |
| 1777769130 | 8.33° C | 76% | 1016.2 hPa | 0 mm | - | - | - |
* Rain latest hour (hover to see other rain measurements)
** Current wind speed in m/s (hover to see current wind gust speed)